Time;durP1;ratioP1;P1;durP2;ratioP2;P2;SDS_P1;SDS_P2;PMS_P1;PMS_P2;Temp;Humidity;BMP_temperature;BMP_pressure;BME280_temperature;BME280_humidity;BME280_pressure;Samples;Min_cycle;Max_cycle;Signal;HPM_P1;HPM_P2
2021/04/25 00:01:33;;;;;;;13.23;3.85;;;8.70;56.00;;;;;;4921874;29;20026;-91
2021/04/25 00:03:59;;;;;;;11.05;3.47;;;8.70;56.10;;;;;;4922420;29;20015;-91
2021/04/25 00:06:25;;;;;;;14.05;3.55;;;8.80;55.80;;;;;;4922042;29;20032;-92
2021/04/25 00:08:50;;;;;;;11.35;3.00;;;8.70;56.00;;;;;;4921917;29;20035;-90
2021/04/25 00:11:16;;;;;;;16.95;3.88;;;8.70;55.90;;;;;;4921413;29;20067;-91
2021/04/25 00:13:43;;;;;;;10.18;3.35;;;8.70;55.80;;;;;;4922936;29;20075;-93
2021/04/25 00:16:14;;;;;;;12.75;3.28;;;8.70;56.50;;;;;;4922982;29;20032;-92
2021/04/25 00:18:40;;;;;;;13.80;3.88;;;8.70;55.70;;;;;;4923518;29;20063;-91
2021/04/25 00:21:05;;;;;;;12.55;3.60;;;8.70;55.70;;;;;;4923182;29;20035;-91
2021/04/25 00:23:31;;;;;;;11.32;3.30;;;8.70;55.60;;;;;;4922388;29;20071;-91
2021/04/25 00:25:57;;;;;;;13.37;3.33;;;8.70;55.60;;;;;;4922283;29;20493;-92
2021/04/25 00:28:23;;;;;;;13.33;3.80;;;8.70;55.70;;;;;;4927104;29;20079;-91
2021/04/25 00:30:49;;;;;;;13.90;4.03;;;8.70;55.60;;;;;;4924707;29;20032;-90
2021/04/25 00:33:15;;;;;;;12.30;3.95;;;8.60;55.60;;;;;;4924490;29;20083;-92
2021/04/25 00:35:41;;;;;;;8.93;3.50;;;8.50;55.70;;;;;;4925015;29;20024;-91
2021/04/25 00:38:07;;;;;;;11.30;3.60;;;8.50;55.70;;;;;;4925320;29;20063;-92
2021/04/25 00:40:32;;;;;;;9.07;3.17;;;8.60;55.50;;;;;;4924619;29;20048;-92
2021/04/25 00:42:58;;;;;;;11.23;3.50;;;8.50;55.50;;;;;;4925023;29;20438;-92
2021/04/25 00:45:24;;;;;;;12.65;3.40;;;8.60;55.60;;;;;;4924792;29;20032;-92
2021/04/25 00:47:50;;;;;;;12.25;3.58;;;8.50;55.70;;;;;;4925384;29;20122;-92
2021/04/25 00:50:23;;;;;;;14.50;3.70;;;8.50;55.60;;;;;;4924548;29;20046;-92
2021/04/25 00:52:49;;;;;;;12.40;3.73;;;8.60;55.60;;;;;;4924778;29;20035;-91
2021/04/25 00:55:17;;;;;;;12.80;3.70;;;8.60;55.50;;;;;;4925090;29;20046;-93
2021/04/25 00:57:43;;;;;;;11.73;3.47;;;8.40;55.80;;;;;;4925181;29;20062;-92
2021/04/25 01:00:11;;;;;;;13.33;3.70;;;8.40;55.50;;;;;;4924983;29;20038;-92
2021/04/25 01:02:38;;;;;;;12.33;3.40;;;8.40;55.80;;;;;;4924649;29;20028;-91
2021/04/25 01:05:07;;;;;;;17.63;3.87;;;8.40;55.80;;;;;;4923469;29;20035;-90
2021/04/25 01:07:33;;;;;;;10.23;3.13;;;8.40;55.80;;;;;;4924298;29;20035;-91
2021/04/25 01:09:58;;;;;;;14.77;3.70;;;8.30;55.90;;;;;;4924494;29;20108;-91
2021/04/25 01:12:24;;;;;;;12.70;3.58;;;8.40;55.60;;;;;;4924780;29;20094;-91
2021/04/25 01:14:50;;;;;;;12.07;3.72;;;8.50;55.60;;;;;;4925161;29;20042;-91
2021/04/25 01:17:16;;;;;;;11.70;3.45;;;8.50;55.50;;;;;;4924514;29;20028;-92
2021/04/25 01:19:42;;;;;;;12.55;3.22;;;8.50;55.50;;;;;;4925158;29;20043;-91
2021/04/25 01:22:08;;;;;;;12.55;3.50;;;8.50;55.40;;;;;;4925480;29;20063;-92
2021/04/25 01:24:33;;;;;;;16.13;3.80;;;8.40;55.60;;;;;;4924259;29;20028;-93
2021/04/25 01:26:59;;;;;;;12.55;3.72;;;8.40;55.50;;;;;;4925080;29;20031;-91
2021/04/25 01:29:27;;;;;;;12.77;3.40;;;8.40;55.50;;;;;;4925080;29;20389;-91
2021/04/25 01:31:53;;;;;;;13.30;3.30;;;8.30;55.60;;;;;;4926121;29;20513;-92
2021/04/25 01:34:19;;;;;;;10.02;3.30;;;8.30;55.60;;;;;;4927921;29;20063;-92
2021/04/25 01:36:45;;;;;;;12.77;2.93;;;8.20;55.60;;;;;;4926316;29;20038;-91
2021/04/25 01:39:10;;;;;;;10.98;3.05;;;8.20;55.80;;;;;;4927853;29;20232;-92
2021/04/25 01:41:36;;;;;;;14.63;3.20;;;8.20;55.70;;;;;;4926086;29;20433;-91
2021/04/25 01:44:03;;;;;;;13.70;3.10;;;8.20;55.80;;;;;;4925497;29;20035;-92
2021/04/25 01:46:29;;;;;;;13.73;3.43;;;8.20;55.80;;;;;;4926219;29;20031;-92
2021/04/25 01:48:54;;;;;;;12.20;3.30;;;8.20;56.00;;;;;;4926096;29;20056;-91
2021/04/25 01:51:20;;;;;;;14.83;3.40;;;8.10;55.90;;;;;;4925082;29;20036;-92
2021/04/25 01:53:46;;;;;;;9.83;2.93;;;8.10;56.10;;;;;;4924900;29;20028;-91
2021/04/25 01:56:11;;;;;;;14.20;3.43;;;8.00;56.10;;;;;;4924287;29;20460;-92
2021/04/25 01:58:37;;;;;;;13.13;3.20;;;8.00;56.20;;;;;;4925072;29;20024;-91
2021/04/25 02:01:03;;;;;;;14.67;3.47;;;8.00;56.10;;;;;;4926585;29;20358;-92
2021/04/25 02:03:29;;;;;;;11.37;3.30;;;8.00;56.30;;;;;;4924999;29;20028;-91
2021/04/25 02:05:55;;;;;;;9.83;3.23;;;8.00;56.40;;;;;;4924328;29;20393;-92
2021/04/25 02:08:20;;;;;;;12.47;3.20;;;8.00;56.30;;;;;;4923957;29;20399;-91
2021/04/25 02:10:46;;;;;;;11.87;3.17;;;8.00;56.10;;;;;;4927896;29;20088;-92
2021/04/25 02:13:12;;;;;;;10.77;2.77;;;8.00;56.00;;;;;;4924708;29;20046;-91
2021/04/25 02:15:39;;;;;;;9.10;2.80;;;8.00;55.90;;;;;;4923750;29;20063;-92
2021/04/25 02:18:05;;;;;;;10.83;2.80;;;8.00;55.90;;;;;;4923197;29;20442;-91
2021/04/25 02:20:32;;;;;;;12.13;2.77;;;7.90;55.80;;;;;;4922923;29;20126;-91
2021/04/25 02:22:58;;;;;;;13.07;2.80;;;7.90;55.80;;;;;;4923172;29;20028;-92
2021/04/25 02:25:25;;;;;;;14.97;2.60;;;7.90;55.90;;;;;;4924041;29;20374;-92
2021/04/25 02:27:51;;;;;;;11.33;3.07;;;7.70;56.00;;;;;;4922426;29;20114;-91
2021/04/25 02:30:20;;;;;;;9.47;2.80;;;7.80;56.00;;;;;;4923023;29;20032;-91
2021/04/25 02:32:47;;;;;;;12.20;2.97;;;7.80;55.90;;;;;;4922794;29;20031;-91
2021/04/25 02:35:14;;;;;;;10.63;2.67;;;7.90;55.80;;;;;;4924232;29;20050;-92
2021/04/25 02:37:40;;;;;;;12.53;3.17;;;7.90;55.80;;;;;;4922843;29;20028;-91
2021/04/25 02:40:12;;;;;;;12.73;2.93;;;7.80;55.80;;;;;;4923353;29;20026;-92
2021/04/25 02:42:38;;;;;;;9.67;2.53;;;7.80;55.80;;;;;;4923421;29;20024;-92
2021/04/25 02:45:05;;;;;;;8.63;2.80;;;7.80;55.80;;;;;;4923297;28;20079;-92
2021/04/25 02:47:31;;;;;;;12.07;3.00;;;7.80;55.70;;;;;;4923655;29;20075;-92
2021/04/25 02:49:57;;;;;;;10.43;2.80;;;7.80;55.70;;;;;;4922607;28;20023;-93
2021/04/25 02:52:25;;;;;;;14.27;3.23;;;7.90;55.90;;;;;;4922009;29;20563;-92
2021/04/25 02:54:55;;;;;;;12.40;3.15;;;7.90;55.60;;;;;;4922403;29;20028;-91
2021/04/25 02:57:22;;;;;;;15.33;2.93;;;7.90;55.50;;;;;;4922923;29;20045;-91
2021/04/25 02:59:48;;;;;;;11.27;2.83;;;7.90;55.70;;;;;;4922803;29;20032;-92
2021/04/25 03:02:13;;;;;;;12.90;3.03;;;8.00;55.50;;;;;;4923647;29;20055;-91
2021/04/25 03:04:39;;;;;;;9.73;2.90;;;8.10;55.20;;;;;;4923667;29;20363;-91
2021/04/25 03:07:04;;;;;;;10.33;2.80;;;8.10;55.40;;;;;;4922406;29;20490;-92
2021/04/25 03:09:30;;;;;;;15.50;3.30;;;7.90;55.40;;;;;;4922080;29;20032;-92
2021/04/25 03:11:56;;;;;;;10.87;2.87;;;7.90;55.60;;;;;;4921870;29;20035;-93
2021/04/25 03:14:21;;;;;;;12.03;3.27;;;7.90;55.70;;;;;;4921890;29;20466;-92
2021/04/25 03:16:47;;;;;;;11.77;3.00;;;7.80;55.70;;;;;;4922297;29;20039;-92
2021/04/25 03:19:12;;;;;;;7.97;2.60;;;7.90;55.90;;;;;;4921809;29;20059;-92
2021/04/25 03:21:38;;;;;;;13.23;2.73;;;7.90;56.00;;;;;;4921795;29;20038;-92
2021/04/25 03:24:04;;;;;;;9.47;2.57;;;7.90;55.80;;;;;;4922263;29;20119;-91
2021/04/25 03:26:30;;;;;;;10.03;2.87;;;7.90;55.80;;;;;;4921525;29;20463;-92
2021/04/25 03:28:55;;;;;;;14.30;2.80;;;7.90;56.00;;;;;;4921598;29;20067;-92
2021/04/25 03:31:21;;;;;;;13.03;2.77;;;7.80;55.80;;;;;;4921847;29;20028;-91
2021/04/25 03:33:47;;;;;;;11.80;2.60;;;7.80;56.00;;;;;;4921075;29;20078;-92
2021/04/25 03:36:12;;;;;;;9.50;2.50;;;7.70;56.10;;;;;;4921532;29;20015;-92
2021/04/25 03:38:38;;;;;;;11.33;3.00;;;7.70;56.10;;;;;;4921229;29;20504;-92
2021/04/25 03:41:04;;;;;;;11.37;2.60;;;7.70;56.10;;;;;;4921516;29;20100;-91
2021/04/25 03:43:29;;;;;;;9.87;2.63;;;7.60;56.40;;;;;;4920628;29;20024;-91
2021/04/25 03:45:55;;;;;;;12.10;2.70;;;7.60;56.40;;;;;;4920484;29;20032;-91
2021/04/25 03:48:22;;;;;;;10.13;2.77;;;7.60;56.60;;;;;;4922937;29;20469;-91
2021/04/25 03:50:47;;;;;;;16.03;3.00;;;7.60;56.50;;;;;;4923835;29;20035;-92
2021/04/25 03:53:13;;;;;;;11.20;2.70;;;7.60;56.30;;;;;;4923481;29;20035;-91
2021/04/25 03:55:39;;;;;;;11.77;3.13;;;7.70;56.50;;;;;;4923138;29;20031;-91
2021/04/25 03:58:04;;;;;;;11.03;2.57;;;7.70;56.50;;;;;;4925505;29;20046;-91
2021/04/25 04:00:30;;;;;;;11.30;2.80;;;7.70;56.30;;;;;;4923366;29;20055;-92
2021/04/25 04:02:56;;;;;;;13.63;2.70;;;7.70;56.30;;;;;;4922318;29;20047;-91
2021/04/25 04:05:21;;;;;;;10.63;2.90;;;7.70;56.30;;;;;;4922183;29;20027;-91
2021/04/25 04:07:47;;;;;;;10.67;2.60;;;7.70;56.30;;;;;;4921185;29;20031;-91
2021/04/25 04:10:13;;;;;;;9.20;2.20;;;7.70;56.20;;;;;;4921366;29;20059;-90
2021/04/25 04:12:39;;;;;;;12.67;2.73;;;7.60;56.40;;;;;;4920852;29;20051;-92
2021/04/25 04:15:06;;;;;;;10.90;2.20;;;7.50;56.50;;;;;;4920781;29;20425;-92
2021/04/25 04:17:31;;;;;;;10.60;2.20;;;7.60;56.60;;;;;;4923288;29;20198;-91
2021/04/25 04:19:57;;;;;;;12.07;2.40;;;7.60;56.60;;;;;;4923454;29;20047;-92
2021/04/25 04:22:22;;;;;;;8.90;2.13;;;7.50;56.60;;;;;;4922041;29;20038;-92
2021/04/25 04:24:48;;;;;;;8.90;2.03;;;7.60;56.50;;;;;;4920982;28;20075;-91
2021/04/25 04:27:14;;;;;;;10.47;2.40;;;7.60;56.40;;;;;;4921883;29;20024;-92
2021/04/25 04:29:39;;;;;;;8.80;2.00;;;7.60;56.30;;;;;;4922593;29;20063;-92
2021/04/25 04:32:05;;;;;;;9.03;1.90;;;7.70;56.40;;;;;;4922010;29;20028;-91
2021/04/25 04:34:31;;;;;;;8.70;2.13;;;7.70;56.60;;;;;;4921552;29;20528;-91
2021/04/25 04:36:57;;;;;;;10.03;2.30;;;7.60;56.40;;;;;;4923323;29;20028;-91
2021/04/25 04:39:23;;;;;;;7.73;1.97;;;7.60;56.30;;;;;;4922284;29;20070;-90
2021/04/25 04:41:49;;;;;;;11.07;2.27;;;7.70;56.30;;;;;;4922646;29;20473;-92
2021/04/25 04:44:16;;;;;;;8.53;2.00;;;7.60;56.40;;;;;;4921839;29;20473;-92
2021/04/25 04:46:41;;;;;;;7.70;1.87;;;7.70;56.50;;;;;;4923158;29;20032;-92
2021/04/25 04:49:07;;;;;;;6.63;2.07;;;7.70;56.50;;;;;;4922920;29;20036;-91
2021/04/25 04:51:33;;;;;;;5.27;1.83;;;7.60;56.40;;;;;;4922880;29;20055;-91
2021/04/25 04:53:59;;;;;;;8.43;2.07;;;7.60;56.80;;;;;;4921996;29;20032;-91
2021/04/25 04:56:24;;;;;;;11.80;1.87;;;7.60;56.50;;;;;;4922158;29;20148;-91
2021/04/25 04:58:50;;;;;;;12.57;2.40;;;7.60;56.50;;;;;;4922182;29;20023;-92
2021/04/25 05:01:15;;;;;;;9.07;2.60;;;7.60;56.50;;;;;;4922294;29;20030;-92
2021/04/25 05:03:41;;;;;;;10.40;1.90;;;7.60;56.50;;;;;;4923035;29;20028;-92
2021/04/25 05:06:06;;;;;;;13.00;3.20;;;7.60;56.50;;;;;;4922037;29;20500;-92
2021/04/25 05:08:32;;;;;;;11.83;2.40;;;7.70;56.70;;;;;;4921602;29;20134;-91
2021/04/25 05:10:57;;;;;;;10.70;2.17;;;7.70;56.70;;;;;;4921504;29;20405;-90
2021/04/25 05:13:23;;;;;;;11.53;2.40;;;7.70;56.70;;;;;;4920953;28;20063;-91
2021/04/25 05:15:48;;;;;;;8.70;2.00;;;7.70;56.70;;;;;;4924812;29;20035;-91
2021/04/25 05:18:14;;;;;;;11.30;2.20;;;7.70;56.60;;;;;;4924931;29;20477;-91
2021/04/25 05:20:40;;;;;;;12.80;1.90;;;7.70;56.70;;;;;;4924629;29;20155;-92
2021/04/25 05:23:06;;;;;;;12.50;2.30;;;7.70;56.60;;;;;;4924688;29;20036;-90
2021/04/25 05:25:31;;;;;;;9.27;2.17;;;7.70;56.60;;;;;;4925437;29;20038;-91
2021/04/25 05:27:57;;;;;;;13.23;2.63;;;7.70;56.60;;;;;;4925120;29;20036;-92
2021/04/25 05:30:23;;;;;;;10.27;2.10;;;7.70;57.60;;;;;;4924866;29;20050;-91
2021/04/25 05:32:49;;;;;;;9.90;2.37;;;7.60;56.90;;;;;;4924983;29;20035;-91
2021/04/25 05:35:15;;;;;;;10.07;2.27;;;7.60;56.90;;;;;;4925080;29;20120;-91
2021/04/25 05:37:41;;;;;;;5.27;2.00;;;7.60;57.10;;;;;;4925316;29;20031;-90
2021/04/25 05:40:09;;;;;;;10.90;2.63;;;7.70;57.00;;;;;;4924422;29;20078;-91
2021/04/25 05:42:35;;;;;;;5.93;2.10;;;7.60;57.10;;;;;;4923345;29;20106;-91
2021/04/25 05:45:00;;;;;;;7.63;2.10;;;7.60;57.20;;;;;;4923781;29;20063;-91
2021/04/25 05:47:27;;;;;;;9.63;2.33;;;7.50;57.60;;;;;;4923155;29;20030;-91
2021/04/25 05:49:53;;;;;;;11.47;2.20;;;7.50;57.30;;;;;;4923043;29;20038;-92
2021/04/25 05:52:18;;;;;;;8.50;2.10;;;7.50;57.40;;;;;;4922469;29;20035;-92
2021/04/25 05:54:44;;;;;;;12.70;2.87;;;7.60;57.20;;;;;;4923801;29;20143;-91
2021/04/25 05:57:10;;;;;;;9.23;2.10;;;7.50;57.30;;;;;;4923740;29;20058;-92
2021/04/25 05:59:36;;;;;;;13.07;2.60;;;7.50;57.40;;;;;;4924738;29;20035;-92
2021/04/25 06:02:03;;;;;;;8.73;2.50;;;7.50;57.30;;;;;;4922892;29;20032;-92
2021/04/25 06:04:29;;;;;;;10.77;2.53;;;7.60;57.30;;;;;;4922480;29;20047;-91
2021/04/25 06:06:55;;;;;;;11.43;2.30;;;7.60;57.20;;;;;;4923149;29;20032;-91
2021/04/25 06:09:20;;;;;;;11.10;2.30;;;7.60;57.60;;;;;;4923399;29;20102;-90
2021/04/25 06:11:46;;;;;;;9.43;2.10;;;7.60;57.20;;;;;;4922210;29;20028;-92
2021/04/25 06:14:12;;;;;;;13.73;2.50;;;7.70;57.10;;;;;;4923781;29;20079;-91
2021/04/25 06:16:37;;;;;;;12.43;2.57;;;7.70;57.00;;;;;;4924308;29;20532;-91
2021/04/25 06:19:03;;;;;;;13.13;2.57;;;7.70;57.10;;;;;;4923229;29;20093;-91
2021/04/25 06:21:29;;;;;;;12.40;2.10;;;7.70;57.10;;;;;;4923504;29;20024;-91
2021/04/25 06:23:55;;;;;;;9.70;2.30;;;7.70;57.00;;;;;;4922515;29;20075;-91
2021/04/25 06:26:20;;;;;;;10.67;2.47;;;7.70;56.90;;;;;;4922977;29;20035;-91
2021/04/25 06:28:46;;;;;;;13.67;2.23;;;7.70;57.00;;;;;;4922888;29;20031;-92
2021/04/25 06:31:12;;;;;;;9.63;2.77;;;7.80;57.00;;;;;;4923200;29;20031;-92
2021/04/25 06:33:37;;;;;;;10.67;2.30;;;7.80;56.90;;;;;;4924493;29;20034;-90
2021/04/25 06:36:03;;;;;;;13.67;2.30;;;7.80;56.90;;;;;;4924327;29;20027;-92
2021/04/25 06:38:28;;;;;;;12.10;2.40;;;7.90;56.90;;;;;;4923094;29;20040;-93
2021/04/25 06:40:54;;;;;;;11.00;2.20;;;7.90;56.70;;;;;;4922934;29;20388;-90
2021/04/25 06:43:20;;;;;;;12.27;2.30;;;7.90;56.90;;;;;;4922223;29;20469;-91
2021/04/25 06:45:46;;;;;;;8.77;2.13;;;7.80;56.80;;;;;;4922955;29;20035;-92
2021/04/25 06:48:12;;;;;;;12.97;2.73;;;7.80;56.80;;;;;;4923849;29;20170;-92
2021/04/25 06:50:38;;;;;;;9.87;2.50;;;7.90;57.00;;;;;;4921942;29;20095;-92
2021/04/25 06:53:04;;;;;;;9.87;2.57;;;7.90;56.90;;;;;;4921835;29;20035;-91
2021/04/25 06:55:29;;;;;;;10.97;2.47;;;7.80;56.90;;;;;;4921686;28;20022;-91
2021/04/25 06:57:55;;;;;;;15.13;2.30;;;7.80;57.00;;;;;;4922010;29;20052;-92
2021/04/25 07:00:23;;;;;;;9.27;2.03;;;7.80;57.10;;;;;;4922251;29;20028;-91
2021/04/25 07:02:49;;;;;;;11.57;2.10;;;7.80;57.40;;;;;;4922107;29;20032;-91
2021/04/25 07:05:15;;;;;;;11.37;1.90;;;7.80;57.20;;;;;;4922196;29;20366;-92
2021/04/25 07:07:41;;;;;;;13.00;1.90;;;7.80;57.00;;;;;;4922321;29;20027;-92
2021/04/25 07:10:09;;;;;;;10.43;2.30;;;7.80;57.00;;;;;;4921734;29;20039;-90
2021/04/25 07:12:34;;;;;;;10.40;1.90;;;7.80;57.10;;;;;;4922362;29;20032;-92
2021/04/25 07:15:00;;;;;;;9.57;2.07;;;7.80;57.00;;;;;;4923120;29;20421;-91
2021/04/25 07:17:26;;;;;;;12.37;2.20;;;7.80;56.80;;;;;;4923698;29;20028;-92
2021/04/25 07:19:52;;;;;;;11.80;2.20;;;7.90;56.90;;;;;;4924091;29;20052;-91
2021/04/25 07:22:17;;;;;;;10.67;2.10;;;7.90;56.80;;;;;;4922893;29;20028;-91
2021/04/25 07:24:43;;;;;;;7.03;1.70;;;7.90;56.70;;;;;;4922832;29;20036;-91
2021/04/25 07:27:09;;;;;;;11.07;2.10;;;7.90;56.70;;;;;;4922908;29;20504;-91
2021/04/25 07:29:34;;;;;;;10.80;2.20;;;7.90;56.90;;;;;;4922927;29;20028;-91
2021/04/25 07:32:00;;;;;;;13.10;2.13;;;7.90;56.80;;;;;;4925581;29;20055;-91
2021/04/25 07:34:26;;;;;;;7.90;1.87;;;8.00;56.80;;;;;;4921523;29;20034;-92
2021/04/25 07:36:53;;;;;;;11.23;3.00;;;7.90;56.80;;;;;;4921982;29;20028;-91
2021/04/25 07:39:18;;;;;;;9.87;1.90;;;7.90;56.90;;;;;;4922407;29;20492;-92
2021/04/25 07:41:44;;;;;;;10.60;1.90;;;8.00;56.80;;;;;;4923177;29;20039;-90
2021/04/25 07:44:09;;;;;;;13.93;2.00;;;8.00;56.70;;;;;;4923666;29;20066;-93
2021/04/25 07:46:35;;;;;;;14.17;2.10;;;8.00;57.40;;;;;;4923401;29;20058;-91
2021/04/25 07:49:01;;;;;;;13.97;2.70;;;8.00;57.00;;;;;;4923506;29;20122;-91
2021/04/25 07:51:26;;;;;;;12.90;2.20;;;8.10;56.50;;;;;;4923004;29;20086;-90
2021/04/25 07:53:55;;;;;;;11.87;2.20;;;8.10;56.60;;;;;;4923392;29;20027;-91
2021/04/25 07:56:20;;;;;;;7.70;1.90;;;8.00;56.90;;;;;;4922681;29;20051;-91
2021/04/25 07:58:46;;;;;;;16.17;2.00;;;8.00;56.80;;;;;;4922526;29;20307;-91
2021/04/25 08:01:11;;;;;;;9.27;2.00;;;8.10;56.70;;;;;;4922763;29;20055;-90
2021/04/25 08:03:37;;;;;;;15.30;2.07;;;8.10;56.60;;;;;;4923210;29;20028;-90
2021/04/25 08:06:05;;;;;;;11.93;2.10;;;8.20;57.00;;;;;;4923130;29;20063;-90
2021/04/25 08:08:30;;;;;;;9.80;1.93;;;8.10;56.60;;;;;;4923974;29;20028;-91
2021/04/25 08:10:56;;;;;;;11.47;2.00;;;8.10;56.60;;;;;;4922201;29;20031;-89
2021/04/25 08:13:22;;;;;;;10.87;1.90;;;8.10;57.10;;;;;;4923864;29;20050;-90
2021/04/25 08:15:47;;;;;;;12.40;1.90;;;8.10;56.80;;;;;;4922899;29;20481;-90
2021/04/25 08:18:14;;;;;;;9.50;2.30;;;8.10;57.20;;;;;;4921972;29;20040;-91
2021/04/25 08:20:40;;;;;;;13.13;2.40;;;8.00;57.30;;;;;;4922232;29;20058;-90
2021/04/25 08:23:06;;;;;;;14.53;2.20;;;8.10;57.00;;;;;;4921509;29;20035;-89
2021/04/25 08:25:32;;;;;;;19.37;2.23;;;8.10;57.00;;;;;;4921575;29;20095;-90
2021/04/25 08:27:59;;;;;;;12.20;2.47;;;8.10;56.90;;;;;;4922073;29;20063;-90
2021/04/25 08:30:25;;;;;;;10.10;1.90;;;8.10;57.20;;;;;;4922351;29;20036;-90
2021/04/25 08:32:50;;;;;;;14.30;2.30;;;8.20;56.90;;;;;;4923681;29;20043;-90
2021/04/25 08:35:18;;;;;;;12.13;2.20;;;8.10;56.90;;;;;;4920225;29;20066;-90
2021/04/25 08:37:44;;;;;;;11.97;1.90;;;8.10;56.90;;;;;;4923024;29;20028;-91
2021/04/25 08:40:10;;;;;;;15.10;2.40;;;8.20;57.00;;;;;;4924072;29;20024;-90
2021/04/25 08:42:35;;;;;;;12.23;2.10;;;8.20;56.80;;;;;;4922111;29;20036;-91
2021/04/25 08:45:02;;;;;;;12.30;2.07;;;8.20;57.00;;;;;;4921245;29;20028;-91
2021/04/25 08:47:29;;;;;;;13.67;2.13;;;8.20;56.90;;;;;;4921868;29;20035;-91
2021/04/25 08:49:59;;;;;;;12.40;2.70;;;8.20;57.00;;;;;;4926969;29;20036;-89
2021/04/25 08:52:25;;;;;;;11.55;2.35;;;8.30;56.80;;;;;;4927392;29;20404;-90
2021/04/25 08:54:52;;;;;;;10.67;1.90;;;8.40;56.60;;;;;;4926651;29;20032;-91
2021/04/25 08:57:18;;;;;;;14.33;1.90;;;8.40;56.40;;;;;;4925205;29;20059;-90
2021/04/25 08:59:44;;;;;;;12.00;1.90;;;8.60;56.10;;;;;;4924860;29;20031;-91
2021/04/25 09:02:09;;;;;;;10.37;1.70;;;8.50;56.10;;;;;;4925888;29;20056;-91
2021/04/25 09:04:35;;;;;;;11.60;2.20;;;8.60;55.90;;;;;;4923872;29;20481;-91
2021/04/25 09:07:06;;;;;;;12.80;2.20;;;8.60;55.80;;;;;;4923885;29;20477;-91
2021/04/25 09:09:42;;;;;;;11.40;2.13;;;8.60;55.60;;;;;;4924946;29;20031;-91
2021/04/25 09:12:08;;;;;;;10.70;2.23;;;8.60;55.70;;;;;;4924458;29;20410;-91
2021/04/25 09:14:38;;;;;;;11.93;2.10;;;8.60;55.80;;;;;;4924937;29;20461;-91
2021/04/25 09:17:05;;;;;;;14.73;2.30;;;8.70;55.70;;;;;;4924930;29;20031;-92
2021/04/25 09:19:55;;;;;;;12.33;2.30;;;8.80;55.40;;;;;;4923711;29;20405;-91
2021/04/25 09:22:22;;;;;;;10.90;2.17;;;8.80;55.30;;;;;;4924237;29;20548;-91
2021/04/25 09:24:49;;;;;;;15.00;2.20;;;8.80;55.40;;;;;;4923863;29;20032;-91
2021/04/25 09:27:26;;;;;;;10.37;2.00;;;8.80;55.30;;;;;;4922724;29;20060;-90
2021/04/25 09:29:58;;;;;;;13.57;2.20;;;8.80;55.30;;;;;;4923467;29;20099;-91
2021/04/25 09:32:30;;;;;;;14.03;2.20;;;8.80;55.20;;;;;;4923292;29;20405;-92
2021/04/25 09:35:17;;;;;;;13.43;2.47;;;8.90;55.80;;;;;;4923041;29;20051;-92
2021/04/25 09:37:45;;;;;;;11.33;2.10;;;8.90;55.10;;;;;;4922690;29;20409;-90
2021/04/25 09:40:21;;;;;;;12.10;2.00;;;8.80;55.00;;;;;;4923022;29;20056;-91
2021/04/25 09:43:06;;;;;;;9.63;1.73;;;8.90;54.80;;;;;;4923970;29;20041;-91
2021/04/25 09:45:32;;;;;;;9.07;1.83;;;8.90;54.90;;;;;;4923340;29;20031;-92
2021/04/25 09:48:01;;;;;;;13.90;2.13;;;8.90;54.70;;;;;;4923164;29;20038;-90
2021/04/25 09:50:28;;;;;;;9.93;2.10;;;8.90;54.90;;;;;;4926966;29;20027;-92
2021/04/25 09:52:53;;;;;;;10.43;1.70;;;9.00;54.50;;;;;;4924113;29;20382;-91
2021/04/25 09:55:23;;;;;;;6.30;1.70;;;9.00;54.40;;;;;;4923548;29;20035;-92
2021/04/25 09:57:51;;;;;;;12.33;2.20;;;9.10;54.50;;;;;;4923788;29;20031;-91
2021/04/25 10:00:18;;;;;;;12.52;2.40;;;9.00;54.40;;;;;;4924409;29;20034;-91
2021/04/25 10:02:57;;;;;;;10.73;2.13;;;9.10;54.40;;;;;;4924865;29;20024;-91
2021/04/25 10:05:24;;;;;;;11.05;2.63;;;9.10;54.20;;;;;;4922290;29;20023;-91
2021/04/25 10:07:50;;;;;;;10.93;2.07;;;9.10;54.40;;;;;;4924797;29;20028;-91
2021/04/25 10:10:16;;;;;;;12.67;2.03;;;9.10;54.30;;;;;;4922902;29;20397;-91
2021/04/25 10:12:45;;;;;;;12.50;2.03;;;9.10;54.30;;;;;;4922965;29;20098;-90
2021/04/25 10:15:11;;;;;;;13.50;2.13;;;9.10;54.10;;;;;;4922659;29;20042;-91
2021/04/25 10:17:48;;;;;;;9.10;1.92;;;9.10;54.20;;;;;;4922910;29;20097;-92
2021/04/25 10:20:17;;;;;;;11.63;1.90;;;9.10;54.30;;;;;;4922867;29;20414;-91
2021/04/25 10:22:44;;;;;;;10.80;2.20;;;9.20;54.10;;;;;;4922513;29;20118;-92
2021/04/25 10:25:30;;;;;;;9.40;1.87;;;9.20;53.70;;;;;;4922043;29;20114;-91
2021/04/25 10:28:01;;;;;;;12.43;2.00;;;9.30;53.80;;;;;;4923285;29;20028;-92
2021/04/25 10:30:37;;;;;;;13.43;2.33;;;9.40;53.50;;;;;;4923460;29;20024;-91
2021/04/25 10:33:03;;;;;;;12.70;2.17;;;9.40;53.60;;;;;;4923629;29;20038;-91
2021/04/25 10:35:35;;;;;;;12.40;2.23;;;9.30;53.50;;;;;;4925238;29;20054;-91
2021/04/25 10:38:02;;;;;;;12.97;1.90;;;9.40;53.60;;;;;;4925961;29;20030;-92
2021/04/25 10:40:32;;;;;;;13.10;2.10;;;9.50;52.80;;;;;;4926624;28;20023;-91
2021/04/25 10:42:59;;;;;;;9.80;2.93;;;9.50;52.80;;;;;;4927956;29;20007;-92
2021/04/25 10:45:29;;;;;;;11.10;2.00;;;9.40;52.90;;;;;;4928460;29;20031;-91
2021/04/25 10:48:21;;;;;;;14.03;2.23;;;9.50;52.80;;;;;;4930617;29;20020;-91
2021/04/25 10:50:50;;;;;;;10.00;1.90;;;9.50;52.50;;;;;;4925188;29;20031;-91
2021/04/25 10:53:18;;;;;;;8.27;1.95;;;9.60;52.80;;;;;;4925746;29;20043;-91
2021/04/25 10:55:46;;;;;;;11.88;2.10;;;9.70;52.40;;;;;;4927186;29;20038;-90
2021/04/25 10:58:17;;;;;;;16.38;2.40;;;9.70;52.30;;;;;;4926407;29;20075;-91
2021/04/25 11:00:44;;;;;;;10.13;2.47;;;9.90;51.90;;;;;;4922286;29;20024;-91
2021/04/25 11:03:12;;;;;;;11.02;2.10;;;10.00;52.00;;;;;;4923922;28;20019;-91
2021/04/25 11:05:41;;;;;;;8.50;1.85;;;10.00;51.50;;;;;;4924069;29;20059;-92
2021/04/25 11:08:26;;;;;;;8.30;2.00;;;10.00;51.70;;;;;;4921992;29;20503;-91
2021/04/25 11:11:13;;;;;;;12.10;2.20;;;10.00;51.80;;;;;;4923937;29;20060;-91
2021/04/25 11:13:47;;;;;;;9.55;2.15;;;10.10;51.60;;;;;;4923896;29;20016;-91
2021/04/25 11:16:16;;;;;;;13.52;2.17;;;10.20;51.60;;;;;;4925979;28;20011;-91
2021/04/25 11:18:48;;;;;;;10.00;1.92;;;10.20;51.70;;;;;;4922984;29;20047;-91
2021/04/25 11:23:56;;;;;;;10.13;2.25;;;10.30;51.40;;;;;;4940528;29;20047;-89
2021/04/25 11:26:34;;;;;;;9.70;2.20;;;10.30;51.40;;;;;;4924631;28;20016;-92
2021/04/25 11:29:02;;;;;;;13.52;2.17;;;10.40;51.30;;;;;;4926666;29;20007;-90
2021/04/25 11:31:43;;;;;;;10.38;1.95;;;10.40;51.50;;;;;;4923164;29;20042;-91
2021/04/25 11:34:31;;;;;;;14.82;2.65;;;10.30;51.10;;;;;;4925645;29;20024;-92
2021/04/25 11:37:19;;;;;;;13.38;2.45;;;10.30;51.10;;;;;;4927654;29;20067;-91
2021/04/25 11:39:52;;;;;;;8.23;1.80;;;10.30;51.40;;;;;;4927338;29;20044;-91
2021/04/25 11:42:33;;;;;;;13.20;2.65;;;10.30;51.60;;;;;;4926103;29;20031;-91
2021/04/25 11:45:02;;;;;;;15.13;2.22;;;10.50;51.10;;;;;;4925900;29;20028;-91
2021/04/25 11:47:32;;;;;;;12.65;2.15;;;10.70;50.70;;;;;;4926598;29;20028;-92
2021/04/25 11:49:59;;;;;;;8.45;2.10;;;10.80;50.30;;;;;;4924553;29;20031;-91
2021/04/25 11:52:28;;;;;;;7.25;1.85;;;11.00;49.70;;;;;;4925543;29;20024;-92
2021/04/25 11:55:10;;;;;;;10.20;2.30;;;11.00;49.80;;;;;;4926301;29;20032;-90
2021/04/25 11:57:44;;;;;;;12.05;2.03;;;11.00;49.60;;;;;;4928628;29;20028;-91
2021/04/25 12:00:19;;;;;;;9.55;2.20;;;11.20;49.00;;;;;;4929380;29;20019;-91
2021/04/25 12:02:45;;;;;;;10.30;2.17;;;11.20;48.80;;;;;;4927941;29;20039;-91
2021/04/25 12:05:15;;;;;;;9.38;2.03;;;11.30;48.40;;;;;;4925598;29;20028;-91
2021/04/25 12:07:45;;;;;;;14.77;2.17;;;11.30;47.00;;;;;;4925774;29;20032;-91
2021/04/25 12:10:13;;;;;;;11.15;2.20;;;11.30;47.80;;;;;;4924128;29;20110;-91
2021/04/25 12:13:00;;;;;;;13.38;2.30;;;11.20;48.50;;;;;;4925165;29;20032;-91
2021/04/25 12:15:27;;;;;;;11.02;2.40;;;11.30;47.80;;;;;;4925956;29;20111;-89
2021/04/25 12:17:56;;;;;;;8.48;2.10;;;11.30;48.80;;;;;;4925494;29;20531;-90
2021/04/25 12:20:23;;;;;;;12.45;2.13;;;11.40;48.90;;;;;;4924359;29;20080;-93
2021/04/25 12:22:49;;;;;;;11.07;2.10;;;11.40;48.80;;;;;;4923454;29;20059;-91
2021/04/25 12:25:16;;;;;;;12.38;2.30;;;11.40;48.70;;;;;;4926205;29;20024;-91
2021/04/25 12:27:53;;;;;;;11.52;2.33;;;11.50;48.70;;;;;;4928229;29;20412;-91
2021/04/25 12:30:21;;;;;;;7.00;1.90;;;11.60;48.40;;;;;;4924739;29;20031;-92
2021/04/25 12:32:47;;;;;;;8.20;1.97;;;11.60;48.60;;;;;;4925023;29;20036;-92
2021/04/25 12:35:22;;;;;;;11.13;2.00;;;11.90;48.30;;;;;;4924120;29;20028;-91
2021/04/25 12:37:48;;;;;;;7.65;2.20;;;12.00;48.00;;;;;;4923944;29;20027;-91
2021/04/25 12:40:35;;;;;;;8.40;2.17;;;12.20;47.80;;;;;;4923386;29;20074;-91
2021/04/25 12:43:19;;;;;;;8.32;1.80;;;12.50;47.30;;;;;;4924694;28;20028;-92
2021/04/25 12:45:46;;;;;;;10.63;2.00;;;12.70;43.60;;;;;;4924834;29;20043;-91
2021/04/25 12:48:24;;;;;;;8.93;2.00;;;12.70;47.40;;;;;;4924982;29;20095;-91
2021/04/25 12:51:12;;;;;;;8.63;1.95;;;12.50;45.20;;;;;;4925399;28;20505;-92
2021/04/25 12:53:45;;;;;;;9.40;2.08;;;12.40;44.70;;;;;;4925095;29;20028;-92